Terminal Aerodrome Forecast
Issued by NWS

Home | Current Version | Previous Version | Text Only | Print | Product List | Glossary On
Versions: 1 2 3 4 5 6 7 8 9 10 11 12
000
FTUS44 KLIX 051741
TAFMSY
TAF
KMSY 051741Z 0518/0618 22005KT P6SM SCT030 BKN150
     FM051900 13004KT P6SM VCTS SCT040CB BKN100
      TEMPO 0519/0523 VRB25G35KT 1SM TSRA BKN020CB OVC060
     FM060100 18007KT P6SM FEW030 BKN200
     FM061400 18006KT P6SM SCT025 BKN200=

USA.gov is the U.S. government's official web portal to all federal, state and local government web resources and services.